Terminal Aerodrome Forecast
Issued by NWS

Home | Current Version | Previous Version | Text Only | Print | Product List | Glossary On
Versions: 1 2 3 4 5 6 7 8 9 10 11 12 13 14 15 16 17 18 19 20 21 22 23 24 25 26 27 28 29 30 31 32 33 34
342
FTUS41 KOKX 241338 AAB
TAFGON
TAF AMD
KGON 241338Z 2414/2512 16005KT P6SM FEW250
     FM241500 18009KT P6SM SCT250
     FM242300 14006KT P6SM BKN250
     FM250200 11006KT P6SM BKN035
     FM250300 10009KT 5SM -RA OVC018
     FM250700 10010KT 3SM RA OVC006
     FM251100 10012G18KT 2SM RA BR OVC006=

USA.gov is the U.S. government's official web portal to all federal, state and local government web resources and services.